Key West, FL

20:21 EDT le 23 septembre 2014 (GMT -0400)
Big Coppitt Key Gulfside | Change Station
CLOSE
Current Station
Stations météorologiques personnelles
Location: Key West, FL
Altitude: 31 ft
Stations météo à proximité

Alt. 31 ft 24.60 °N, 81.67 °W | Updated 29 seconds ago

Nuageux
Nuageux
80.8 ° F
Paraît 87 ° F
N
5.3
Vent Variable Vent de ESE

Aujourd'hui
Haut(e) -- | Bas -- ° F
--% Risque de précip.
Hier
Haut(e) -- | Bas -- ° F
Precip. -- pouce
7:15 AM 7:21 PM
Lune descendante, 0% visible
Pression 29.95 pouce
Visibilité 10.0 Miles terrestres
Nuages Peu 2000 ft
Nuages épars 4500 ft
Nuageux 7000 ft
indice de chaleur 87 ° F
Point de rosée 76 ° F
Humidité 86%
Précipitations 1.45 pouce
Profondeur de la couche neigeuse Non disponible.
UV 0 sur 12
Pollen .50 sur 12
Qualité de l'air Non disponible.
Flu Activity Non disponible.
METAR KNQX 232353Z 08006KT 10SM FEW020 SCT045 BKN070 27/24 A2995 RMK AO2 SLP141 T02720239 10294 20272 53013 $

More Conditions Fewer Conditions

Pression 29.95 pouce
Visibilité 10.0 Miles terrestres
Nuages Peu 2000 ft
Nuages épars 4500 ft
Nuageux 7000 ft
indice de chaleur 87 ° F
Point de rosée 76 ° F
Humidité 86%
Précipitations 1.45 pouce
Profondeur de la couche neigeuse Non disponible.
UV 0 sur 12
Pollen .50 sur 12
Qualité de l'air Non disponible.
Flu Activity Non disponible.
METAR KNQX 232353Z 08006KT 10SM FEW020 SCT045 BKN070 27/24 A2995 RMK AO2 SLP141 T02720239 10294 20272 53013 $

More Conditions Fewer Conditions

10-Day Weather Forecast

Almanac

Astronomie

Sep. 23, 2014 Lever Coucher
Temps réel 07:15 EDT 19:21 EDT
Crépuscule civil 06:52 EDT 19:44 EDT
Crépuscule nautique 06:26 EDT 20:10 EDT
Crépuscule astronomique 05:59 EDT 20:37 EDT
Lune 06:39 EDT (9/23) 19:01 EDT (9/23)
Durée de lumière visible 12h 51m
Longueur du jour
12h 06m
Tomorrow will be 1m 25s shorter.
Lune descendante, 0% of the Moon is Illuminated
Aujourd'hui
Lune descendante
Sep 24
Nouveau
Oct 1
Premier quartier
Oct 8
Pleine lune
Oct 15
Dernier quartier

Extrêmes aujourd'hui

State Highs State Lows

Community

WunderPhotos

Upload Photos

1,755,828 Photos téléchargées !

WunderBlogs® & News

Nearby

Épaisseur de neige

Station Depth Altitude
Pas de nouvelles chutes de neige

Activité sismique

Ville Distance Mag. Time & Date
No recent earthquake activity has been reported nearby.
Minimum magnitude displayed is 2.5.

Températures des eaux côtières

Lieu Température
Key West, FL 84.9 ° F
Vaca Key, FL 84.9 ° F

Stations météo à proximité